Time;durP1;ratioP1;P1;durP2;ratioP2;P2;SDS_P1;SDS_P2;PMS_P1;PMS_P2;Temp;Humidity;BMP_temperature;BMP_pressure;BME280_temperature;BME280_humidity;BME280_pressure;Samples;Min_cycle;Max_cycle;Signal;HPM_P1;HPM_P2
2022/05/17 00:00:00;;;;;;;1.65;0.80;;;;;;;;;;2090658;28;20025;-63
2022/05/17 00:01:19;;;;;;;2.92;1.50;;;;;;;;;;2089322;28;20808;-62
2022/05/17 00:02:38;;;;;;;3.08;1.17;;;;;;;;;;2090745;28;20395;-63
2022/05/17 00:03:58;;;;;;;2.03;1.42;;;;;;;;;;2088399;28;20431;-63
2022/05/17 00:05:17;;;;;;;2.47;1.20;;;;;;;;;;2090552;28;20120;-63
2022/05/17 00:06:36;;;;;;;2.25;1.38;;;;;;;;;;2088764;28;20120;-62
2022/05/17 00:07:55;;;;;;;2.17;1.25;;;;;;;;;;2080445;28;20566;-63
2022/05/17 00:09:16;;;;;;;2.55;1.42;;;;;;;;;;2087585;28;20033;-62
2022/05/17 00:10:35;;;;;;;4.00;1.92;;;;;;;;;;2090267;28;20037;-62
2022/05/17 00:11:56;;;;;;;6.25;1.33;;;;;;;;;;2090654;28;20029;-62
2022/05/17 00:13:15;;;;;;;3.65;1.20;;;;;;;;;;2081717;28;20026;-62
2022/05/17 00:14:34;;;;;;;5.63;1.92;;;;;;;;;;2084607;28;20029;-62
2022/05/17 00:15:54;;;;;;;3.40;1.63;;;;;;;;;;2090675;28;20017;-62
2022/05/17 00:17:13;;;;;;;3.78;1.40;;;;;;;;;;2082107;28;20033;-62
2022/05/17 00:18:33;;;;;;;2.55;1.67;;;;;;;;;;2086171;28;20033;-62
2022/05/17 00:19:52;;;;;;;3.72;1.80;;;;;;;;;;2081679;28;20100;-63
2022/05/17 00:21:11;;;;;;;2.45;1.50;;;;;;;;;;2086369;28;20017;-63
2022/05/17 00:22:30;;;;;;;3.30;1.38;;;;;;;;;;2088816;28;20028;-63
2022/05/17 00:23:49;;;;;;;6.45;1.77;;;;;;;;;;2089063;28;20017;-63
2022/05/17 00:25:08;;;;;;;6.40;1.90;;;;;;;;;;2082285;28;20025;-62
2022/05/17 00:26:28;;;;;;;5.47;1.77;;;;;;;;;;2077628;28;20030;-63
2022/05/17 00:27:47;;;;;;;4.05;1.60;;;;;;;;;;2087937;28;20435;-64
2022/05/17 00:29:06;;;;;;;3.65;1.88;;;;;;;;;;2091072;28;20053;-64
2022/05/17 00:30:25;;;;;;;3.40;1.63;;;;;;;;;;2088798;28;20025;-63
2022/05/17 00:31:44;;;;;;;8.15;2.08;;;;;;;;;;2088962;28;20033;-63
2022/05/17 00:33:03;;;;;;;2.67;1.20;;;;;;;;;;2082347;28;20033;-63
2022/05/17 00:34:24;;;;;;;3.72;1.60;;;;;;;;;;2079768;28;20029;-64
2022/05/17 00:35:45;;;;;;;7.30;2.05;;;;;;;;;;2087255;28;20040;-63
2022/05/17 00:37:04;;;;;;;2.00;1.33;;;;;;;;;;2089038;28;20068;-63
2022/05/17 00:38:23;;;;;;;3.70;1.50;;;;;;;;;;2091465;28;20029;-64
2022/05/17 00:39:42;;;;;;;5.43;1.73;;;;;;;;;;2082246;28;20025;-64
2022/05/17 00:41:02;;;;;;;3.90;1.40;;;;;;;;;;2084068;28;20041;-63
2022/05/17 00:42:21;;;;;;;4.38;1.88;;;;;;;;;;2089244;28;20025;-64
2022/05/17 00:45:18;;;;;;;2.17;1.38;;;;;;;;;;2088534;28;20025;-64
2022/05/17 00:46:58;;;;;;;3.03;1.70;;;;;;;;;;2090055;28;20021;-64
2022/05/17 00:48:18;;;;;;;4.18;1.40;;;;;;;;;;2089768;28;20033;-64
2022/05/17 00:49:40;;;;;;;3.47;1.40;;;;;;;;;;2090087;28;20029;-63
2022/05/17 00:50:59;;;;;;;2.25;1.40;;;;;;;;;;2089865;28;20037;-63
2022/05/17 00:52:33;;;;;;;1.90;1.15;;;;;;;;;;2081334;28;20029;-64
2022/05/17 00:53:52;;;;;;;;;;;;;;;;;;2089658;28;20041;-62
2022/05/17 00:55:19;;;;;;;5.03;1.35;;;;;;;;;;2089925;28;19940;-61
2022/05/17 00:56:41;;;;;;;3.80;1.35;;;;;;;;;;2090696;28;20033;-63
2022/05/17 00:58:07;;;;;;;5.07;1.20;;;;;;;;;;2090323;28;20025;-62
2022/05/17 00:59:26;;;;;;;4.45;1.65;;;;;;;;;;2090144;28;20405;-62
2022/05/17 01:00:51;;;;;;;6.63;1.55;;;;;;;;;;2081738;28;20022;-62
2022/05/17 01:02:10;;;;;;;7.22;1.55;;;;;;;;;;2085910;28;20021;-62
2022/05/17 01:03:34;;;;;;;3.17;1.38;;;;;;;;;;2090645;28;20511;-62
2022/05/17 01:04:53;;;;;;;5.85;1.70;;;;;;;;;;2090031;28;20025;-62
2022/05/17 01:06:13;;;;;;;4.38;1.90;;;;;;;;;;2090128;28;20037;-63
2022/05/17 01:07:38;;;;;;;4.57;1.75;;;;;;;;;;2089805;28;20033;-62
2022/05/17 01:08:57;;;;;;;5.40;2.08;;;;;;;;;;2090191;28;20036;-62
2022/05/17 01:10:16;;;;;;;5.63;1.60;;;;;;;;;;2090855;28;20033;-63
2022/05/17 01:11:35;;;;;;;4.30;1.90;;;;;;;;;;2088741;28;20037;-62
2022/05/17 01:16:10;;;;;;;3.60;1.23;;;;;;;;;;2090336;28;20033;-63
2022/05/17 01:17:34;;;;;;;3.95;2.08;;;;;;;;;;2090056;28;20029;-62
2022/05/17 01:18:53;;;;;;;3.85;1.50;;;;;;;;;;2080729;28;20034;-62
2022/05/17 01:20:13;;;;;;;5.20;2.05;;;;;;;;;;2086746;28;20020;-64
2022/05/17 01:21:32;;;;;;;4.03;1.70;;;;;;;;;;2090244;28;20020;-62
2022/05/17 01:22:51;;;;;;;3.72;1.77;;;;;;;;;;2089748;28;20021;-62
2022/05/17 01:24:10;;;;;;;3.78;2.40;;;;;;;;;;2088747;28;20037;-62
2022/05/17 01:25:29;;;;;;;9.45;2.47;;;;;;;;;;2090808;28;20037;-62
2022/05/17 01:26:51;;;;;;;6.45;1.30;;;;;;;;;;2089761;28;20487;-62
2022/05/17 01:28:24;;;;;;;2.55;1.77;;;;;;;;;;2089715;28;20406;-62
2022/05/17 01:29:43;;;;;;;;;;;;;;;;;;2089659;28;20088;-62
2022/05/17 01:31:05;;;;;;;3.15;1.20;;;;;;;;;;2090070;28;19905;-62
2022/05/17 01:32:25;;;;;;;3.53;1.45;;;;;;;;;;2089226;28;20379;-62
2022/05/17 01:33:43;;;;;;;4.15;1.33;;;;;;;;;;2090542;28;20036;-62
2022/05/17 01:35:03;;;;;;;4.45;1.30;;;;;;;;;;2088581;28;20025;-62
2022/05/17 01:36:23;;;;;;;2.65;1.20;;;;;;;;;;2090472;28;20106;-62
2022/05/17 01:37:41;;;;;;;4.43;1.60;;;;;;;;;;2089867;28;20021;-63
2022/05/17 01:39:00;;;;;;;6.78;1.20;;;;;;;;;;2081057;28;20033;-62
2022/05/17 01:40:19;;;;;;;3.15;1.27;;;;;;;;;;2086669;28;20450;-62
2022/05/17 01:41:38;;;;;;;5.07;1.23;;;;;;;;;;2080857;28;20048;-62
2022/05/17 01:42:57;;;;;;;5.30;1.77;;;;;;;;;;2085502;28;20029;-62
2022/05/17 01:44:17;;;;;;;5.88;1.38;;;;;;;;;;2089785;28;20028;-63
2022/05/17 01:45:36;;;;;;;2.00;1.00;;;;;;;;;;2089091;28;20025;-62
2022/05/17 01:46:55;;;;;;;2.38;1.13;;;;;;;;;;2090720;28;20029;-62
2022/05/17 01:48:13;;;;;;;3.35;1.58;;;;;;;;;;2090336;28;20037;-62
2022/05/17 01:49:32;;;;;;;4.72;1.33;;;;;;;;;;2090556;28;20037;-63
2022/05/17 01:50:51;;;;;;;4.82;1.30;;;;;;;;;;2090810;28;20029;-62
2022/05/17 01:52:10;;;;;;;4.40;1.30;;;;;;;;;;2089977;28;20033;-62
2022/05/17 01:53:29;;;;;;;2.70;1.27;;;;;;;;;;2090036;28;20037;-62
2022/05/17 01:54:48;;;;;;;2.85;1.25;;;;;;;;;;2089156;28;20025;-62
2022/05/17 01:56:08;;;;;;;6.40;1.15;;;;;;;;;;2088374;28;20029;-62
2022/05/17 01:57:27;;;;;;;1.65;1.15;;;;;;;;;;2079516;28;20026;-61
2022/05/17 01:58:46;;;;;;;4.78;1.00;;;;;;;;;;2087158;28;20033;-62
2022/05/17 02:00:06;;;;;;;3.45;1.13;;;;;;;;;;2081294;28;20025;-62
2022/05/17 02:01:25;;;;;;;2.47;1.40;;;;;;;;;;2086482;28;20450;-62
2022/05/17 02:02:43;;;;;;;1.67;1.30;;;;;;;;;;2089228;28;20391;-62
2022/05/17 02:04:02;;;;;;;3.75;1.27;;;;;;;;;;2088786;28;20053;-62
2022/05/17 02:05:22;;;;;;;3.88;1.20;;;;;;;;;;2089276;28;20499;-62
2022/05/17 02:06:42;;;;;;;3.65;1.33;;;;;;;;;;2087307;28;20079;-62
2022/05/17 02:08:00;;;;;;;1.83;1.10;;;;;;;;;;2089741;28;20084;-61
2022/05/17 02:09:19;;;;;;;2.05;0.80;;;;;;;;;;2090180;28;20040;-62
2022/05/17 02:10:38;;;;;;;2.97;1.30;;;;;;;;;;2090247;28;20033;-62
2022/05/17 02:11:58;;;;;;;1.40;1.15;;;;;;;;;;2089451;28;20495;-66
2022/05/17 02:13:18;;;;;;;1.85;1.13;;;;;;;;;;2088277;28;20076;-67
2022/05/17 02:14:36;;;;;;;3.42;1.20;;;;;;;;;;2089677;28;20395;-67
2022/05/17 02:15:56;;;;;;;3.00;1.00;;;;;;;;;;2088031;28;20115;-67
2022/05/17 02:17:15;;;;;;;2.80;1.05;;;;;;;;;;2089666;28;20036;-67
2022/05/17 02:18:33;;;;;;;3.35;1.10;;;;;;;;;;2089207;28;20199;-66
2022/05/17 02:19:52;;;;;;;1.35;0.80;;;;;;;;;;2087602;28;20116;-67
2022/05/17 02:21:11;;;;;;;1.85;1.48;;;;;;;;;;2090338;28;20387;-67
2022/05/17 02:22:30;;;;;;;1.60;1.20;;;;;;;;;;2088264;28;20053;-67
2022/05/17 02:23:49;;;;;;;3.58;1.23;;;;;;;;;;2089803;28;20037;-67
2022/05/17 02:25:08;;;;;;;3.13;0.95;;;;;;;;;;2080162;28;20033;-68
2022/05/17 02:26:28;;;;;;;1.20;0.85;;;;;;;;;;2085411;28;20029;-68
2022/05/17 02:27:46;;;;;;;1.65;1.10;;;;;;;;;;2089662;28;20399;-68
2022/05/17 02:29:05;;;;;;;2.88;0.95;;;;;;;;;;2089760;28;20479;-69
2022/05/17 02:30:24;;;;;;;2.30;1.00;;;;;;;;;;2089371;28;20029;-68
2022/05/17 02:31:43;;;;;;;1.05;0.70;;;;;;;;;;2088450;28;20138;-68
2022/05/17 02:33:04;;;;;;;3.70;1.10;;;;;;;;;;2088847;28;20037;-69
2022/05/17 02:34:22;;;;;;;1.88;0.88;;;;;;;;;;2089751;28;20068;-68
2022/05/17 02:35:41;;;;;;;1.58;1.13;;;;;;;;;;2089068;28;20037;-68
2022/05/17 02:37:00;;;;;;;2.25;0.90;;;;;;;;;;2088501;28;20139;-69
2022/05/17 02:38:19;;;;;;;2.50;1.00;;;;;;;;;;2089240;28;20033;-66
2022/05/17 02:39:38;;;;;;;5.22;0.98;;;;;;;;;;2089491;28;20041;-66
2022/05/17 02:40:57;;;;;;;3.80;1.10;;;;;;;;;;2087144;28;20045;-66
2022/05/17 02:42:16;;;;;;;2.78;0.73;;;;;;;;;;2080539;28;20061;-67
2022/05/17 02:43:35;;;;;;;1.85;0.98;;;;;;;;;;2085259;28;20029;-66
2022/05/17 02:44:54;;;;;;;5.38;0.95;;;;;;;;;;2089482;28;20032;-66
2022/05/17 02:46:13;;;;;;;2.78;0.88;;;;;;;;;;2079583;28;20033;-65
2022/05/17 02:47:32;;;;;;;1.20;0.90;;;;;;;;;;2085631;28;20037;-67
2022/05/17 02:48:51;;;;;;;2.15;0.88;;;;;;;;;;2088627;28;20037;-67
2022/05/17 02:50:10;;;;;;;1.27;0.85;;;;;;;;;;2089575;28;20044;-67
2022/05/17 02:51:29;;;;;;;3.47;0.90;;;;;;;;;;2089642;28;20033;-66
2022/05/17 02:52:48;;;;;;;2.35;1.30;;;;;;;;;;2088411;28;20025;-66
2022/05/17 02:54:10;;;;;;;1.08;0.98;;;;;;;;;;2088330;28;20025;-65
2022/05/17 02:55:29;;;;;;;1.10;0.95;;;;;;;;;;2089694;28;20068;-66
2022/05/17 02:56:48;;;;;;;1.27;1.15;;;;;;;;;;2089705;28;20507;-67
2022/05/17 02:58:07;;;;;;;1.45;1.00;;;;;;;;;;2088897;28;20025;-65
2022/05/17 02:59:26;;;;;;;0.90;0.88;;;;;;;;;;2087044;28;20025;-66
2022/05/17 03:00:45;;;;;;;1.25;1.08;;;;;;;;;;2089568;28;20041;-66
2022/05/17 03:02:04;;;;;;;2.15;0.88;;;;;;;;;;2088962;28;20387;-66
2022/05/17 03:03:23;;;;;;;1.25;1.00;;;;;;;;;;2081058;28;20025;-66
2022/05/17 03:04:42;;;;;;;3.10;1.17;;;;;;;;;;2085684;28;20120;-67
2022/05/17 03:06:01;;;;;;;2.67;1.00;;;;;;;;;;2088301;28;20025;-66
2022/05/17 03:07:20;;;;;;;2.33;1.20;;;;;;;;;;2090256;28;20033;-66
2022/05/17 03:08:39;;;;;;;1.13;1.02;;;;;;;;;;2082601;28;20108;-67
2022/05/17 03:09:58;;;;;;;0.75;0.70;;;;;;;;;;2087701;28;20033;-71
2022/05/17 03:11:17;;;;;;;1.13;0.98;;;;;;;;;;2090624;28;20491;-66
2022/05/17 03:12:36;;;;;;;1.40;1.20;;;;;;;;;;2082498;28;20025;-68
2022/05/17 03:13:55;;;;;;;1.73;0.90;;;;;;;;;;2079017;28;20860;-66
2022/05/17 03:15:16;;;;;;;3.58;1.17;;;;;;;;;;2078653;28;20463;-67
2022/05/17 03:16:36;;;;;;;3.90;0.90;;;;;;;;;;2078581;28;20037;-67
2022/05/17 03:17:55;;;;;;;2.08;1.00;;;;;;;;;;2086966;28;20021;-67
2022/05/17 03:19:14;;;;;;;2.05;1.00;;;;;;;;;;2091250;28;20025;-67
2022/05/17 03:20:33;;;;;;;2.08;1.30;;;;;;;;;;2082589;28;20029;-68
2022/05/17 03:21:52;;;;;;;4.43;1.08;;;;;;;;;;2086807;28;20025;-67
2022/05/17 03:23:11;;;;;;;0.93;0.90;;;;;;;;;;2091171;28;20021;-67
2022/05/17 03:24:31;;;;;;;1.63;1.33;;;;;;;;;;2081995;28;20033;-67
2022/05/17 03:25:49;;;;;;;3.42;1.10;;;;;;;;;;2087666;28;20033;-67
2022/05/17 03:27:09;;;;;;;2.63;1.25;;;;;;;;;;2082703;28;20021;-67
2022/05/17 03:28:27;;;;;;;1.90;1.00;;;;;;;;;;2086915;28;20033;-68
2022/05/17 03:29:47;;;;;;;2.38;1.33;;;;;;;;;;2089172;28;20056;-67
2022/05/17 03:31:07;;;;;;;1.15;1.00;;;;;;;;;;2091459;28;20037;-66
2022/05/17 03:32:26;;;;;;;5.55;1.10;;;;;;;;;;2089203;28;20029;-66
2022/05/17 03:33:45;;;;;;;2.10;1.40;;;;;;;;;;2090493;28;20033;-66
2022/05/17 03:35:06;;;;;;;2.67;1.50;;;;;;;;;;2090756;28;20036;-66
2022/05/17 03:36:25;;;;;;;1.48;0.90;;;;;;;;;;2089492;28;20029;-65
2022/05/17 03:37:43;;;;;;;2.95;1.60;;;;;;;;;;2088832;28;20025;-67
2022/05/17 03:39:03;;;;;;;4.45;1.52;;;;;;;;;;2090436;28;20021;-67
2022/05/17 03:40:21;;;;;;;1.30;1.20;;;;;;;;;;2088602;28;20053;-68
2022/05/17 03:41:40;;;;;;;3.67;1.38;;;;;;;;;;2090506;28;20037;-67
2022/05/17 03:42:59;;;;;;;2.78;1.20;;;;;;;;;;2090112;28;20052;-68
2022/05/17 03:44:18;;;;;;;2.05;1.40;;;;;;;;;;2090796;28;20029;-67
2022/05/17 03:45:38;;;;;;;3.22;1.25;;;;;;;;;;2089881;28;20037;-67
2022/05/17 03:46:56;;;;;;;3.42;1.30;;;;;;;;;;2091306;28;20033;-67
2022/05/17 03:48:15;;;;;;;3.22;1.00;;;;;;;;;;2091393;28;20056;-66
2022/05/17 03:49:36;;;;;;;2.95;1.42;;;;;;;;;;2089497;28;20036;-66
2022/05/17 03:50:55;;;;;;;1.17;1.08;;;;;;;;;;2090998;28;20025;-67
2022/05/17 03:52:14;;;;;;;1.63;1.30;;;;;;;;;;2079279;28;20033;-67
2022/05/17 03:53:33;;;;;;;1.95;1.25;;;;;;;;;;2086981;28;20029;-66
2022/05/17 03:54:58;;;;;;;1.50;1.13;;;;;;;;;;2081757;28;20029;-66
2022/05/17 03:56:17;;;;;;;3.97;1.45;;;;;;;;;;2087793;28;20124;-67
2022/05/17 03:57:37;;;;;;;3.80;1.33;;;;;;;;;;2090525;28;20025;-67
2022/05/17 03:58:55;;;;;;;2.42;1.40;;;;;;;;;;2089485;28;20025;-66
2022/05/17 04:00:15;;;;;;;1.63;1.30;;;;;;;;;;2090994;28;20029;-66
2022/05/17 04:01:34;;;;;;;1.92;1.40;;;;;;;;;;2091005;28;20025;-66
2022/05/17 04:02:53;;;;;;;2.10;1.10;;;;;;;;;;2091238;28;20495;-66
2022/05/17 04:04:12;;;;;;;3.22;1.40;;;;;;;;;;2088974;28;20029;-67
2022/05/17 04:05:32;;;;;;;2.13;1.00;;;;;;;;;;2090869;28;20041;-66
2022/05/17 04:06:51;;;;;;;3.58;1.55;;;;;;;;;;2090632;28;20041;-67
2022/05/17 04:08:10;;;;;;;4.82;1.27;;;;;;;;;;2082002;28;20026;-66
2022/05/17 04:09:28;;;;;;;2.05;1.20;;;;;;;;;;2087095;28;20056;-66
2022/05/17 04:10:47;;;;;;;5.55;1.42;;;;;;;;;;2091043;28;20045;-65
2022/05/17 04:12:06;;;;;;;2.65;1.20;;;;;;;;;;2090213;28;20461;-66
2022/05/17 04:13:29;;;;;;;2.50;1.20;;;;;;;;;;2090296;28;20499;-67
2022/05/17 04:14:48;;;;;;;;;;;;;;;;;;2090448;28;20025;-66
2022/05/17 04:16:07;;;;;;;1.90;1.20;;;;;;;;;;2091480;28;19908;-66
2022/05/17 04:17:26;;;;;;;3.80;1.23;;;;;;;;;;2090726;28;20033;-68
2022/05/17 04:18:46;;;;;;;2.28;1.17;;;;;;;;;;2086950;28;20029;-68
2022/05/17 04:20:06;;;;;;;2.15;1.10;;;;;;;;;;2090992;28;20483;-67
2022/05/17 04:21:25;;;;;;;2.65;1.15;;;;;;;;;;2090280;28;20033;-67
2022/05/17 04:22:45;;;;;;;3.80;1.65;;;;;;;;;;2089768;28;20032;-67
2022/05/17 04:24:05;;;;;;;1.35;1.23;;;;;;;;;;2090670;28;20033;-67
2022/05/17 04:25:25;;;;;;;2.33;1.00;;;;;;;;;;2089993;28;20037;-67
2022/05/17 04:26:44;;;;;;;3.65;1.42;;;;;;;;;;2091039;28;20037;-68
2022/05/17 04:28:03;;;;;;;2.78;1.13;;;;;;;;;;2081676;28;20029;-68
2022/05/17 04:29:22;;;;;;;3.08;1.40;;;;;;;;;;2085998;28;20107;-67
2022/05/17 04:30:41;;;;;;;4.85;1.27;;;;;;;;;;2089938;28;20068;-68
2022/05/17 04:32:00;;;;;;;2.17;1.50;;;;;;;;;;2090637;28;20044;-67
2022/05/17 04:33:19;;;;;;;2.50;1.10;;;;;;;;;;2090006;28;20033;-68
2022/05/17 04:34:38;;;;;;;3.83;0.93;;;;;;;;;;2081329;28;20030;-68
2022/05/17 04:35:57;;;;;;;2.78;1.40;;;;;;;;;;2084159;28;20033;-68
2022/05/17 04:37:15;;;;;;;3.88;1.30;;;;;;;;;;2081593;28;20100;-68
2022/05/17 04:38:34;;;;;;;2.13;1.10;;;;;;;;;;2085962;28;20057;-67
2022/05/17 04:39:53;;;;;;;2.45;1.05;;;;;;;;;;2088725;28;20029;-67
2022/05/17 04:41:12;;;;;;;4.57;1.23;;;;;;;;;;2089809;28;20040;-68
2022/05/17 04:42:31;;;;;;;9.20;1.45;;;;;;;;;;2081787;28;20026;-68
2022/05/17 04:43:50;;;;;;;3.33;1.30;;;;;;;;;;2087606;28;20399;-67
2022/05/17 04:45:10;;;;;;;5.05;1.20;;;;;;;;;;2090190;28;20076;-68
2022/05/17 04:46:29;;;;;;;4.72;1.50;;;;;;;;;;2090509;28;20041;-67
2022/05/17 04:47:48;;;;;;;3.92;1.30;;;;;;;;;;2088707;28;20104;-68
2022/05/17 04:49:08;;;;;;;2.08;1.23;;;;;;;;;;2090677;28;20040;-68
2022/05/17 04:50:27;;;;;;;2.25;1.10;;;;;;;;;;2089246;28;20578;-68
2022/05/17 04:51:50;;;;;;;5.40;1.23;;;;;;;;;;2089554;28;20037;-68
2022/05/17 04:53:09;;;;;;;2.38;1.50;;;;;;;;;;2080713;28;20500;-67
2022/05/17 04:54:28;;;;;;;3.88;1.30;;;;;;;;;;2087068;28;20045;-67
2022/05/17 04:55:47;;;;;;;3.28;1.08;;;;;;;;;;2090384;28;20033;-67
2022/05/17 04:57:06;;;;;;;6.82;1.17;;;;;;;;;;2089974;28;20025;-67
2022/05/17 04:58:25;;;;;;;2.17;0.93;;;;;;;;;;2089282;28;20021;-67
2022/05/17 04:59:45;;;;;;;2.75;1.20;;;;;;;;;;2090313;28;20017;-67
2022/05/17 05:01:04;;;;;;;6.75;1.25;;;;;;;;;;2090581;28;20033;-67
2022/05/17 05:02:23;;;;;;;1.48;0.90;;;;;;;;;;2089244;28;20033;-67
2022/05/17 05:03:42;;;;;;;2.10;1.20;;;;;;;;;;2089626;28;21332;-67
2022/05/17 05:05:01;;;;;;;1.10;1.00;;;;;;;;;;2089135;28;20037;-67
2022/05/17 05:06:21;;;;;;;3.50;1.00;;;;;;;;;;2089071;28;20041;-67
2022/05/17 05:07:39;;;;;;;2.67;1.10;;;;;;;;;;2089245;28;20036;-67
2022/05/17 05:08:58;;;;;;;0.82;0.70;;;;;;;;;;2090437;28;20403;-67
2022/05/17 05:10:18;;;;;;;2.45;1.38;;;;;;;;;;2091174;28;20033;-67
2022/05/17 05:11:37;;;;;;;8.07;1.48;;;;;;;;;;2089866;28;20029;-67
2022/05/17 05:12:56;;;;;;;9.55;1.50;;;;;;;;;;2090418;28;20479;-67
2022/05/17 05:14:15;;;;;;;2.95;1.02;;;;;;;;;;2088345;28;20033;-67
2022/05/17 05:15:35;;;;;;;1.77;0.82;;;;;;;;;;2080721;28;20033;-66
2022/05/17 05:16:54;;;;;;;4.95;0.88;;;;;;;;;;2086906;28;20029;-66
2022/05/17 05:18:14;;;;;;;1.90;1.10;;;;;;;;;;2079522;28;20022;-67
2022/05/17 05:19:33;;;;;;;7.38;1.40;;;;;;;;;;2084238;28;20032;-66
2022/05/17 05:21:01;;;;;;;5.47;1.35;;;;;;;;;;2090175;28;20430;-66
2022/05/17 05:22:20;;;;;;;3.20;1.25;;;;;;;;;;2077964;28;20041;-67
2022/05/17 05:23:40;;;;;;;3.33;1.08;;;;;;;;;;2085788;28;20013;-67
2022/05/17 05:25:00;;;;;;;4.55;0.85;;;;;;;;;;2090449;28;20104;-67
2022/05/17 05:26:19;;;;;;;1.50;0.98;;;;;;;;;;2088157;28;20032;-67
2022/05/17 05:27:40;;;;;;;2.40;1.10;;;;;;;;;;2089393;28;20050;-66
2022/05/17 05:28:59;;;;;;;6.68;1.50;;;;;;;;;;2090190;28;20080;-67
2022/05/17 05:30:19;;;;;;;3.58;1.20;;;;;;;;;;2090163;28;20033;-67
2022/05/17 05:31:41;;;;;;;2.47;1.20;;;;;;;;;;2090041;28;20037;-69
2022/05/17 05:33:00;;;;;;;2.80;1.08;;;;;;;;;;2081946;28;20164;-66
2022/05/17 05:34:19;;;;;;;3.33;0.88;;;;;;;;;;2087109;28;20037;-67
2022/05/17 05:35:38;;;;;;;2.70;1.15;;;;;;;;;;2087655;28;20064;-66
2022/05/17 05:36:57;;;;;;;1.95;0.95;;;;;;;;;;2087619;28;20025;-66
2022/05/17 05:38:16;;;;;;;5.78;1.38;;;;;;;;;;2090291;28;20025;-67
2022/05/17 05:39:35;;;;;;;1.10;1.00;;;;;;;;;;2089961;28;20441;-66
2022/05/17 05:40:54;;;;;;;4.13;1.30;;;;;;;;;;2082109;28;20041;-67
2022/05/17 05:42:13;;;;;;;2.60;0.80;;;;;;;;;;2082022;28;20105;-67
2022/05/17 05:43:32;;;;;;;2.95;0.95;;;;;;;;;;2080061;28;20034;-67
2022/05/17 05:44:51;;;;;;;3.38;1.20;;;;;;;;;;2081001;28;20582;-67
2022/05/17 05:46:11;;;;;;;4.38;1.33;;;;;;;;;;2081915;28;20037;-66
2022/05/17 05:47:30;;;;;;;5.72;1.27;;;;;;;;;;2081769;28;20034;-67
2022/05/17 05:48:49;;;;;;;5.05;1.50;;;;;;;;;;2081765;28;20017;-68
2022/05/17 05:50:08;;;;;;;2.05;1.20;;;;;;;;;;2080254;28;20025;-68
2022/05/17 05:51:27;;;;;;;4.32;1.20;;;;;;;;;;2080376;28;20104;-68
2022/05/17 05:52:46;;;;;;;3.80;0.93;;;;;;;;;;2072203;28;20030;-67
2022/05/17 05:54:05;;;;;;;3.85;0.90;;;;;;;;;;2078414;28;20021;-67
2022/05/17 05:55:24;;;;;;;6.03;1.10;;;;;;;;;;2081706;28;20057;-67
2022/05/17 05:56:43;;;;;;;2.53;1.13;;;;;;;;;;2081619;28;20491;-67
2022/05/17 05:58:03;;;;;;;2.97;1.00;;;;;;;;;;2081590;28;20037;-67
2022/05/17 05:59:22;;;;;;;2.58;1.00;;;;;;;;;;2077919;28;20022;-67
2022/05/17 06:00:41;;;;;;;1.02;0.63;;;;;;;;;;2081658;28;20033;-68
2022/05/17 06:02:00;;;;;;;3.65;0.98;;;;;;;;;;2079691;28;20116;-67
2022/05/17 06:03:19;;;;;;;6.13;1.20;;;;;;;;;;2081142;28;20037;-67
2022/05/17 06:04:38;;;;;;;2.50;0.80;;;;;;;;;;2071753;28;20022;-67
2022/05/17 06:05:57;;;;;;;1.17;0.77;;;;;;;;;;2077414;28;20116;-67
2022/05/17 06:07:16;;;;;;;5.05;0.98;;;;;;;;;;2080912;28;20042;-67
2022/05/17 06:08:35;;;;;;;2.10;0.68;;;;;;;;;;2081159;28;20030;-68
2022/05/17 06:09:54;;;;;;;1.75;0.75;;;;;;;;;;2080181;28;20021;-66
2022/05/17 06:11:14;;;;;;;0.88;0.60;;;;;;;;;;2080079;28;20128;-66
2022/05/17 06:12:33;;;;;;;2.42;0.75;;;;;;;;;;2077677;28;20038;-66
2022/05/17 06:13:52;;;;;;;2.92;0.80;;;;;;;;;;2072001;28;20113;-67
2022/05/17 06:15:11;;;;;;;4.57;1.40;;;;;;;;;;2077431;28;20037;-67
2022/05/17 06:16:30;;;;;;;1.83;0.75;;;;;;;;;;2072170;28;20037;-67
2022/05/17 06:17:49;;;;;;;1.33;0.80;;;;;;;;;;2078022;28;20029;-68
2022/05/17 06:19:08;;;;;;;1.33;0.50;;;;;;;;;;2080494;28;20064;-66
2022/05/17 06:20:27;;;;;;;2.65;1.25;;;;;;;;;;2080876;28;20021;-67
2022/05/17 06:21:46;;;;;;;0.55;0.50;;;;;;;;;;2080440;28;20021;-67
2022/05/17 06:23:05;;;;;;;0.80;0.70;;;;;;;;;;2071630;28;20029;-67
2022/05/17 06:24:24;;;;;;;6.55;1.48;;;;;;;;;;2069336;28;20022;-67
2022/05/17 06:25:43;;;;;;;2.47;0.70;;;;;;;;;;2078224;28;20065;-67
2022/05/17 06:27:02;;;;;;;1.77;0.50;;;;;;;;;;2080018;28;20025;-67
2022/05/17 06:28:21;;;;;;;2.45;0.40;;;;;;;;;;2080099;28;20026;-67
2022/05/17 06:29:40;;;;;;;4.85;0.50;;;;;;;;;;2081117;28;20037;-67
2022/05/17 06:30:59;;;;;;;1.38;0.35;;;;;;;;;;2081226;28;20021;-67
2022/05/17 06:32:19;;;;;;;2.70;0.77;;;;;;;;;;2079316;28;20443;-68
2022/05/17 06:33:39;;;;;;;1.70;0.80;;;;;;;;;;2079399;28;20037;-67
2022/05/17 06:34:58;;;;;;;1.42;0.85;;;;;;;;;;2079757;28;20029;-67
2022/05/17 06:36:16;;;;;;;6.20;0.70;;;;;;;;;;2080870;28;20030;-67
2022/05/17 06:37:37;;;;;;;2.25;0.68;;;;;;;;;;2080965;28;20392;-67
2022/05/17 06:38:55;;;;;;;4.95;1.05;;;;;;;;;;2079841;28;20033;-67
2022/05/17 06:40:14;;;;;;;4.30;0.80;;;;;;;;;;2085619;28;20045;-67
2022/05/17 06:41:34;;;;;;;10.50;1.55;;;;;;;;;;2088705;28;20475;-67
2022/05/17 06:42:53;;;;;;;7.30;0.90;;;;;;;;;;2089484;28;20441;-67
2022/05/17 06:44:12;;;;;;;0.77;0.60;;;;;;;;;;2081063;28;20507;-67
2022/05/17 06:45:31;;;;;;;7.80;1.40;;;;;;;;;;2083394;28;20037;-67
2022/05/17 06:46:50;;;;;;;6.53;1.10;;;;;;;;;;2089380;28;20032;-66
2022/05/17 06:48:09;;;;;;;3.85;0.60;;;;;;;;;;2087703;28;20037;-66
2022/05/17 06:49:29;;;;;;;1.70;0.50;;;;;;;;;;2088283;28;20037;-66
2022/05/17 06:50:48;;;;;;;4.20;0.70;;;;;;;;;;2080100;28;20463;-66
2022/05/17 06:52:08;;;;;;;2.20;0.60;;;;;;;;;;2085112;28;20450;-66
2022/05/17 06:53:26;;;;;;;2.30;0.63;;;;;;;;;;2087698;28;20573;-66
2022/05/17 06:54:45;;;;;;;2.30;0.50;;;;;;;;;;2090614;28;20740;-66
2022/05/17 06:56:05;;;;;;;3.50;1.27;;;;;;;;;;2087638;28;20060;-66
2022/05/17 06:57:24;;;;;;;0.95;0.40;;;;;;;;;;2089210;28;20394;-66
2022/05/17 06:58:43;;;;;;;1.35;0.50;;;;;;;;;;2087571;28;20022;-66
2022/05/17 07:00:06;;;;;;;2.67;0.60;;;;;;;;;;2088475;28;20017;-66
2022/05/17 07:01:25;;;;;;;0.80;0.65;;;;;;;;;;2087543;28;20057;-65
2022/05/17 07:02:44;;;;;;;1.73;0.45;;;;;;;;;;2088293;28;20423;-66
2022/05/17 07:04:03;;;;;;;2.13;0.82;;;;;;;;;;2088187;28;20060;-66
2022/05/17 07:05:22;;;;;;;9.38;0.95;;;;;;;;;;2088950;28;20025;-66
2022/05/17 07:06:41;;;;;;;4.53;0.60;;;;;;;;;;2080242;28;20488;-66
2022/05/17 07:08:00;;;;;;;3.13;0.52;;;;;;;;;;2085435;28;20033;-66
2022/05/17 07:09:22;;;;;;;4.13;0.65;;;;;;;;;;2085633;28;20029;-66
2022/05/17 07:13:57;;;;;;;2.65;0.77;;;;;;;;;;2089011;28;20399;-66
2022/05/17 07:15:16;;;;;;;6.38;0.75;;;;;;;;;;2080054;28;20037;-67
2022/05/17 07:16:36;;;;;;;1.95;0.30;;;;;;;;;;2082108;28;20033;-66
2022/05/17 07:17:57;;;;;;;0.45;0.30;;;;;;;;;;2087978;28;20033;-66
2022/05/17 07:19:16;;;;;;;2.13;0.50;;;;;;;;;;2079546;28;20100;-66
2022/05/17 07:20:35;;;;;;;1.33;0.40;;;;;;;;;;2084046;28;20025;-65
2022/05/17 07:21:54;;;;;;;2.47;0.70;;;;;;;;;;2088807;28;20020;-66
2022/05/17 07:23:14;;;;;;;2.00;0.50;;;;;;;;;;2089319;28;20112;-66
2022/05/17 07:24:33;;;;;;;1.92;0.40;;;;;;;;;;2089076;28;20029;-66
2022/05/17 07:25:53;;;;;;;1.23;0.60;;;;;;;;;;2087099;28;20022;-67
2022/05/17 07:27:12;;;;;;;4.55;0.95;;;;;;;;;;2088346;28;20025;-66
2022/05/17 07:28:32;;;;;;;0.85;0.50;;;;;;;;;;2085813;28;20037;-66
2022/05/17 07:29:51;;;;;;;0.70;0.60;;;;;;;;;;2088146;28;20037;-66
2022/05/17 07:31:10;;;;;;;2.25;0.68;;;;;;;;;;2080873;28;20025;-66
2022/05/17 07:32:29;;;;;;;4.22;0.52;;;;;;;;;;2085227;28;20033;-66
2022/05/17 07:33:48;;;;;;;1.83;0.57;;;;;;;;;;2079897;28;20026;-66
2022/05/17 07:35:07;;;;;;;0.98;0.40;;;;;;;;;;2076704;28;20029;-66
2022/05/17 07:36:26;;;;;;;4.82;0.85;;;;;;;;;;2086485;28;20108;-66
2022/05/17 07:37:45;;;;;;;2.88;0.52;;;;;;;;;;2087984;28;20025;-66
2022/05/17 07:39:03;;;;;;;4.63;0.60;;;;;;;;;;2080733;28;20037;-66
2022/05/17 07:40:22;;;;;;;2.65;0.35;;;;;;;;;;2085827;28;20045;-66
2022/05/17 07:41:42;;;;;;;2.05;0.55;;;;;;;;;;2089970;28;20021;-66
2022/05/17 07:43:01;;;;;;;0.80;0.60;;;;;;;;;;2087803;28;20495;-66
2022/05/17 07:44:20;;;;;;;2.67;0.50;;;;;;;;;;2089934;28;20037;-66
2022/05/17 07:45:39;;;;;;;3.60;0.85;;;;;;;;;;2080497;28;20488;-66
2022/05/17 07:46:58;;;;;;;2.45;0.45;;;;;;;;;;2076933;28;20059;-66
2022/05/17 07:48:22;;;;;;;3.15;0.40;;;;;;;;;;2086392;28;20116;-67
2022/05/17 07:49:42;;;;;;;2.17;0.63;;;;;;;;;;2089140;28;20442;-66
2022/05/17 07:51:00;;;;;;;2.78;0.57;;;;;;;;;;2088606;28;20033;-67
2022/05/17 07:52:19;;;;;;;0.57;0.50;;;;;;;;;;2089196;28;20442;-66
2022/05/17 07:53:38;;;;;;;2.03;0.57;;;;;;;;;;2081942;28;20037;-66
2022/05/17 07:54:57;;;;;;;4.18;0.88;;;;;;;;;;2086000;28;20017;-66
2022/05/17 07:56:16;;;;;;;2.47;0.95;;;;;;;;;;2089121;28;20507;-66
2022/05/17 07:57:35;;;;;;;1.70;0.70;;;;;;;;;;2091155;28;20025;-67
2022/05/17 07:58:55;;;;;;;5.13;0.57;;;;;;;;;;2091123;28;20033;-67
2022/05/17 08:00:14;;;;;;;2.80;0.52;;;;;;;;;;2090793;28;20395;-66
2022/05/17 08:01:33;;;;;;;6.43;0.68;;;;;;;;;;2081292;28;20030;-66
2022/05/17 08:02:55;;;;;;;2.63;0.77;;;;;;;;;;2085860;28;20104;-67
2022/05/17 08:04:14;;;;;;;7.35;0.75;;;;;;;;;;2086492;28;20041;-66